Antlers Park, Minnesota
Current Conditions -  °F | °C
As of 8:49 AM on Wednesday 22 Oct 2014 (Local Time) from KLVN Reporting Station
Clear Clear  
Wind Chill:   Ceiling: Unl
Heat Index:   Visibility: 10mi
Dew Point:   Wind: 9mph
Humidity: 81%   Direction: 140°SE
Pressure: 30.2"   Gusts: NA
Location:  44.6349°N, 93.283°W
Report Text: KLVN 221349Z AUTO 14008KT 10SM CLR 06/03 A3020 RMK AO2
Loading
Personal Weather Stations






























Interactive Weather Map New forecast layout! Learn more

10-Day Weather Forecast

Advertisements
Track Severe Weather on mobile